Terminal Aerodrome Forecast
Issued by NWS Spokane, WA

Home | Current Version | Previous Version | Text Only | Print | Product List | Glossary On
Versions: 1 2 3 4 5 6 7 8 9 10 11 12 13 14 15 16 17 18 19 20 21 22 23
000
FTUS46 KOTX 292326
TAFGEG
TAF
KGEG 292326Z 3000/3024 24016G25KT P6SM FEW070 BKN120 BKN200
     FM300300 23013KT P6SM FEW100 BKN150
     FM300800 21010KT P6SM FEW250
     FM301800 23012G20KT P6SM FEW070 SCT100 BKN250=

USA.gov is the U.S. government's official web portal to all federal, state and local government web resources and services.